createdAt,value
2018-04-16T00:00:39.079Z,7.20
2018-04-16T00:03:07.769Z,7.43
2018-04-16T00:05:36.606Z,7.50
2018-04-16T00:08:04.985Z,7.17
2018-04-16T00:10:33.371Z,6.87
2018-04-16T00:13:01.775Z,6.67
2018-04-16T00:15:30.154Z,6.07
2018-04-16T00:17:58.599Z,6.63
2018-04-16T00:20:26.964Z,6.47
2018-04-16T00:22:55.392Z,6.70
2018-04-16T00:25:23.754Z,6.17
2018-04-16T00:27:52.132Z,8.13
2018-04-16T00:30:20.556Z,6.77
2018-04-16T00:32:54.604Z,6.13
2018-04-16T00:35:28.561Z,8.57
2018-04-16T00:38:02.584Z,6.00
2018-04-16T00:40:36.521Z,9.33
2018-04-16T00:43:10.461Z,7.10
2018-04-16T00:45:44.507Z,6.20
2018-04-16T00:48:18.517Z,6.80
2018-04-16T00:50:52.605Z,8.90
2018-04-16T00:53:26.471Z,5.47
2018-04-16T00:56:00.517Z,6.57
2018-04-16T01:01:36.722Z,7.50
2018-04-16T01:04:10.759Z,10.33
2018-04-16T01:06:44.712Z,7.63
2018-04-16T01:09:18.749Z,9.40
2018-04-16T01:11:52.906Z,7.97
2018-04-16T01:14:27.006Z,8.50
2018-04-16T01:17:00.927Z,10.83
2018-04-16T01:22:40.542Z,13.43
2018-04-16T01:25:14.458Z,11.60
2018-04-16T01:27:48.555Z,7.67
2018-04-16T01:30:22.683Z,6.03
2018-04-16T01:32:56.750Z,6.03
2018-04-16T01:38:35.152Z,7.17
2018-04-16T01:41:09.214Z,8.00
2018-04-16T01:43:43.307Z,7.20
2018-04-16T01:46:17.375Z,7.17
2018-04-16T01:51:53.813Z,10.33
2018-04-16T01:57:37.422Z,6.90
2018-04-16T02:00:11.379Z,4.97
2018-04-16T02:02:45.524Z,6.10
2018-04-16T02:08:22.000Z,7.30
2018-04-16T02:10:56.204Z,8.47
2018-04-16T02:13:30.139Z,7.57
2018-04-16T02:16:04.184Z,9.53
2018-04-16T02:18:38.120Z,10.07
2018-04-16T02:21:12.043Z,6.97
2018-04-16T02:23:46.034Z,6.03
2018-04-16T02:26:19.959Z,6.37
2018-04-16T02:28:53.898Z,9.33
2018-04-16T02:31:28.144Z,5.00
2018-04-16T02:34:02.180Z,6.10
2018-04-16T02:36:36.251Z,5.60
2018-04-16T02:39:10.291Z,5.77
2018-04-16T02:41:44.244Z,5.70
2018-04-16T02:44:18.345Z,14.90
2018-04-16T02:46:52.216Z,5.60
2018-04-16T02:49:26.331Z,7.67
2018-04-16T02:52:00.355Z,5.70
2018-04-16T02:54:34.369Z,7.70
2018-04-16T02:57:08.446Z,5.90
2018-04-16T02:59:42.548Z,5.70
2018-04-16T03:02:16.617Z,7.40
2018-04-16T03:04:50.666Z,9.73
2018-04-16T03:07:24.755Z,7.60
2018-04-16T03:09:59.030Z,6.07
2018-04-16T03:12:33.126Z,10.43
2018-04-16T03:15:07.182Z,5.70
2018-04-16T03:17:41.269Z,6.67
2018-04-16T03:20:15.186Z,7.80
2018-04-16T03:22:49.150Z,7.20
2018-04-16T03:25:23.248Z,5.20
2018-04-16T03:27:57.233Z,5.97
2018-04-16T03:30:31.158Z,9.67
2018-04-16T03:33:05.131Z,7.80
2018-04-16T03:35:39.315Z,4.87
2018-04-16T03:38:13.291Z,6.87
2018-04-16T03:40:47.241Z,5.77
2018-04-16T03:43:21.357Z,4.73
2018-04-16T03:45:55.398Z,4.87
2018-04-16T03:48:29.887Z,5.20
2018-04-16T03:54:12.675Z,5.37
2018-04-16T03:56:41.048Z,5.07
2018-04-16T03:59:09.545Z,7.50
2018-04-16T04:01:37.965Z,9.17
2018-04-16T04:04:06.347Z,12.50
2018-04-16T04:06:34.735Z,5.60
2018-04-16T04:09:03.119Z,6.30
2018-04-16T04:11:31.563Z,8.00
2018-04-16T04:13:59.941Z,6.03
2018-04-16T04:16:28.322Z,7.83
2018-04-16T04:18:56.799Z,14.57
2018-04-16T04:21:25.739Z,16.17
2018-04-16T04:24:05.788Z,8.10
2018-04-16T04:26:45.847Z,6.20
2018-04-16T04:29:26.015Z,4.13
2018-04-16T04:31:54.386Z,4.30
2018-04-16T04:34:22.871Z,5.53
2018-04-16T04:36:51.249Z,4.50
2018-04-16T04:39:19.667Z,3.87
2018-04-16T04:41:48.028Z,7.63
2018-04-16T04:44:16.409Z,4.80
2018-04-16T04:46:44.903Z,3.60
2018-04-16T04:49:13.320Z,3.43
2018-04-16T04:51:41.686Z,5.93
2018-04-16T04:54:10.060Z,2.93
2018-04-16T04:56:38.439Z,5.50
2018-04-16T04:59:06.900Z,8.00
2018-04-16T05:01:35.366Z,3.63
2018-04-16T05:04:03.792Z,6.90
2018-04-16T05:06:32.368Z,4.13
2018-04-16T05:09:00.734Z,3.20
2018-04-16T05:11:29.156Z,7.17
2018-04-16T05:13:57.568Z,7.73
2018-04-16T05:16:26.215Z,5.93
2018-04-16T05:18:54.742Z,4.87
2018-04-16T05:21:23.176Z,12.43
2018-04-16T05:23:51.605Z,14.23
2018-04-16T05:26:19.995Z,4.93
2018-04-16T05:28:48.452Z,5.27
2018-04-16T05:31:16.915Z,6.50
2018-04-16T05:33:45.323Z,6.13
2018-04-16T05:36:13.705Z,5.93
2018-04-16T05:38:42.215Z,6.07
2018-04-16T05:41:10.656Z,5.03
2018-04-16T05:43:39.059Z,3.80
2018-04-16T05:46:07.507Z,4.40
2018-04-16T05:48:35.936Z,26.57
2018-04-16T05:51:04.504Z,6.53
2018-04-16T05:53:32.909Z,12.40
2018-04-16T05:56:01.385Z,10.03
2018-04-16T05:58:29.828Z,14.93
2018-04-16T06:00:58.222Z,6.73
2018-04-16T06:03:26.678Z,9.70
2018-04-16T06:05:55.095Z,8.93
2018-04-16T06:08:23.532Z,10.23
2018-04-16T06:10:52.046Z,13.60
2018-04-16T06:13:20.460Z,5.63
2018-04-16T06:15:48.920Z,15.70
2018-04-16T06:18:17.363Z,7.37
2018-04-16T06:20:45.787Z,9.03
2018-04-16T06:23:14.185Z,17.73
2018-04-16T06:25:42.616Z,14.23
2018-04-16T06:28:11.092Z,5.90
2018-04-16T06:30:39.491Z,7.17
2018-04-16T06:33:07.968Z,8.03
2018-04-16T06:35:36.352Z,9.80
2018-04-16T06:38:04.772Z,10.23
2018-04-16T06:40:33.176Z,6.57
2018-04-16T06:43:01.571Z,5.90
2018-04-16T06:45:30.030Z,3.20
2018-04-16T06:47:58.426Z,6.80
2018-04-16T06:50:26.889Z,11.67
2018-04-16T06:52:55.271Z,5.77
2018-04-16T06:55:23.962Z,6.90
2018-04-16T06:57:52.339Z,7.57
2018-04-16T07:00:20.769Z,6.37
2018-04-16T07:02:49.228Z,5.40
2018-04-16T07:05:17.619Z,9.60
2018-04-16T07:07:46.049Z,8.63
2018-04-16T07:10:14.536Z,7.83
2018-04-16T07:12:42.904Z,3.70
2018-04-16T07:15:11.403Z,4.70
2018-04-16T07:17:39.799Z,6.63
2018-04-16T07:20:08.261Z,7.20
2018-04-16T07:22:36.714Z,6.90
2018-04-16T07:25:05.120Z,9.10
2018-04-16T07:27:33.521Z,7.50
2018-04-16T07:30:01.911Z,8.07
2018-04-16T07:32:30.319Z,9.90
2018-04-16T07:34:58.721Z,9.30
2018-04-16T07:37:27.216Z,5.63
2018-04-16T07:39:55.662Z,6.07
2018-04-16T07:42:24.067Z,7.37
2018-04-16T07:44:53.729Z,7.00
2018-04-16T07:47:22.423Z,6.10
2018-04-16T07:49:50.823Z,9.13
2018-04-16T07:54:49.802Z,5.93
2018-04-16T07:57:18.401Z,6.57
2018-04-16T07:59:46.784Z,6.90
2018-04-16T08:02:15.183Z,7.20
2018-04-16T08:04:43.670Z,6.20
2018-04-16T08:07:12.063Z,6.13
2018-04-16T08:09:40.528Z,6.40
2018-04-16T08:12:08.943Z,13.23
2018-04-16T08:14:37.340Z,7.27
2018-04-16T08:17:05.743Z,7.10
2018-04-16T08:19:34.137Z,6.63
2018-04-16T08:22:02.558Z,8.83
2018-04-16T08:24:30.974Z,8.60
2018-04-16T08:26:59.497Z,10.10
2018-04-16T08:29:27.909Z,6.10
2018-04-16T08:31:56.493Z,6.27
2018-04-16T08:34:31.037Z,7.03
2018-04-16T08:36:59.759Z,6.97
2018-04-16T08:39:28.244Z,6.87
2018-04-16T08:41:56.770Z,10.20
2018-04-16T08:44:25.182Z,9.77
2018-04-16T08:46:53.993Z,8.90
2018-04-16T08:49:22.393Z,10.03
2018-04-16T08:51:50.823Z,7.07
2018-04-16T08:54:19.249Z,7.83
2018-04-16T08:56:47.660Z,10.97
2018-04-16T08:59:16.076Z,8.97
2018-04-16T09:01:44.587Z,12.93
2018-04-16T09:04:16.001Z,11.00
2018-04-16T09:06:44.601Z,13.33
2018-04-16T09:09:13.014Z,9.67
2018-04-16T09:11:41.427Z,6.70
2018-04-16T09:14:09.799Z,7.47
2018-04-16T09:16:38.201Z,8.43
2018-04-16T09:19:06.583Z,6.43
2018-04-16T09:21:34.999Z,12.90
2018-04-16T09:24:03.446Z,5.80
2018-04-16T09:26:31.842Z,7.53
2018-04-16T09:29:00.215Z,6.30
2018-04-16T09:31:28.585Z,10.50
2018-04-16T09:33:57.053Z,5.53
2018-04-16T09:36:25.656Z,5.90
2018-04-16T09:38:54.045Z,7.27
2018-04-16T09:41:22.423Z,8.93
2018-04-16T09:43:51.307Z,6.93
2018-04-16T09:46:19.941Z,7.27
2018-04-16T09:48:48.488Z,5.53
2018-04-16T09:51:16.846Z,6.87
2018-04-16T09:53:45.481Z,6.27
2018-04-16T09:56:13.873Z,4.63
2018-04-16T09:58:42.267Z,5.57
2018-04-16T10:01:16.235Z,4.63
2018-04-16T10:03:44.671Z,5.70
2018-04-16T10:06:13.261Z,5.40
2018-04-16T10:08:41.655Z,4.97
2018-04-16T10:11:10.100Z,4.40
2018-04-16T10:13:38.887Z,5.73
2018-04-16T10:16:07.593Z,6.27
2018-04-16T10:18:36.045Z,6.17
2018-04-16T10:21:04.462Z,4.97
2018-04-16T10:23:32.892Z,11.10
2018-04-16T10:26:01.265Z,8.30
2018-04-16T10:28:29.748Z,10.93
2018-04-16T10:30:58.187Z,10.37
2018-04-16T10:33:26.603Z,9.63
2018-04-16T10:35:54.979Z,7.10
2018-04-16T10:38:23.395Z,8.47
2018-04-16T10:40:52.031Z,14.23
2018-04-16T10:43:20.451Z,4.40
2018-04-16T10:45:48.907Z,5.30
2018-04-16T10:48:17.327Z,4.63
2018-04-16T10:50:45.701Z,6.80
2018-04-16T10:53:14.099Z,4.90
2018-04-16T10:55:42.498Z,9.10
2018-04-16T10:58:10.959Z,4.47
2018-04-16T11:00:39.341Z,6.10
2018-04-16T11:03:07.732Z,5.70
2018-04-16T11:05:36.166Z,5.43
2018-04-16T11:08:04.543Z,3.20
2018-04-16T11:10:33.000Z,5.00
2018-04-16T11:13:01.429Z,11.23
2018-04-16T11:15:29.857Z,5.13
2018-04-16T11:17:58.381Z,4.60
2018-04-16T11:20:26.787Z,3.37
2018-04-16T11:22:55.174Z,5.47
2018-04-16T11:25:23.595Z,7.17
2018-04-16T11:27:52.005Z,6.50
2018-04-16T11:30:20.701Z,4.70
2018-04-16T11:32:49.558Z,7.10
2018-04-16T11:35:17.972Z,2.60
2018-04-16T11:37:46.383Z,12.10
2018-04-16T11:40:14.802Z,7.33
2018-04-16T11:42:43.220Z,4.67
2018-04-16T11:45:11.647Z,13.33
2018-04-16T11:47:40.024Z,5.23
2018-04-16T11:50:08.413Z,8.17
2018-04-16T11:52:37.668Z,3.90
2018-04-16T11:55:06.081Z,5.50
2018-04-16T11:57:34.527Z,9.57
2018-04-16T12:00:02.882Z,7.90
2018-04-16T12:02:31.519Z,6.00
2018-04-16T12:04:59.899Z,3.80
2018-04-16T12:07:28.302Z,5.87
2018-04-16T12:09:56.710Z,4.80
2018-04-16T12:12:25.110Z,3.87
2018-04-16T12:14:53.519Z,6.80
2018-04-16T12:17:21.898Z,6.63
2018-04-16T12:19:50.807Z,13.90
2018-04-16T12:22:19.849Z,14.33
2018-04-16T12:24:48.257Z,14.10
2018-04-16T12:27:16.654Z,13.73
2018-04-16T12:29:45.131Z,14.90
2018-04-16T12:32:13.588Z,11.83
2018-04-16T12:34:41.972Z,11.20
2018-04-16T12:37:10.371Z,14.40
2018-04-16T12:39:38.769Z,11.93
2018-04-16T12:42:07.977Z,9.73
2018-04-16T12:44:36.411Z,6.83
2018-04-16T12:47:04.823Z,13.37
2018-04-16T12:49:33.257Z,7.50
2018-04-16T12:52:01.683Z,10.57
2018-04-16T12:54:30.197Z,6.87
2018-04-16T12:56:58.618Z,7.80
2018-04-16T12:59:27.027Z,11.93
2018-04-16T13:01:55.519Z,13.60
2018-04-16T13:04:23.958Z,10.40
2018-04-16T13:06:52.321Z,6.43
2018-04-16T13:09:21.249Z,7.50
2018-04-16T13:11:49.724Z,7.23
2018-04-16T13:14:18.237Z,13.20
2018-04-16T13:16:46.652Z,7.63
2018-04-16T13:19:15.126Z,8.70
2018-04-16T13:21:45.492Z,6.70
2018-04-16T13:24:13.896Z,10.53
2018-04-16T13:26:42.463Z,5.13
2018-04-16T13:29:10.863Z,4.00
2018-04-16T13:31:39.385Z,6.00
2018-04-16T13:34:07.853Z,9.50
2018-04-16T13:36:36.298Z,6.97
2018-04-16T13:39:04.770Z,6.30
2018-04-16T13:41:33.188Z,8.33
2018-04-16T13:44:01.595Z,6.20
2018-04-16T13:46:30.179Z,5.33
2018-04-16T13:48:58.640Z,9.50
2018-04-16T13:51:27.043Z,9.77
2018-04-16T13:53:55.490Z,6.90
2018-04-16T13:56:23.959Z,9.30
2018-04-16T13:58:52.737Z,8.07
2018-04-16T14:01:21.458Z,8.93
2018-04-16T14:03:49.859Z,6.40
2018-04-16T14:06:18.370Z,7.90
2018-04-16T14:08:46.774Z,6.60
2018-04-16T14:11:15.176Z,11.00
2018-04-16T14:13:43.731Z,9.63
2018-04-16T14:16:12.151Z,9.37
2018-04-16T14:18:40.526Z,8.37
2018-04-16T14:21:09.719Z,8.60
2018-04-16T14:23:38.378Z,4.77
2018-04-16T14:26:07.284Z,8.50
2018-04-16T14:28:35.890Z,8.70
2018-04-16T14:31:04.625Z,9.20
2018-04-16T14:33:33.235Z,10.70
2018-04-16T14:36:01.883Z,6.83
2018-04-16T14:38:30.889Z,6.50
2018-04-16T14:40:59.587Z,10.20
2018-04-16T14:43:30.177Z,12.00
2018-04-16T14:45:58.806Z,10.50
2018-04-16T14:48:27.919Z,6.30
2018-04-16T14:50:56.333Z,5.07
2018-04-16T14:53:24.807Z,9.83
2018-04-16T14:55:53.376Z,7.50
2018-04-16T14:58:21.783Z,8.80
2018-04-16T15:00:50.210Z,10.60
2018-04-16T15:03:18.905Z,11.43
2018-04-16T15:05:47.309Z,13.63
2018-04-16T15:08:15.731Z,10.97
2018-04-16T15:10:44.141Z,13.70
2018-04-16T15:13:12.748Z,12.70
2018-04-16T15:15:41.317Z,19.20
2018-04-16T15:18:09.764Z,11.63
2018-04-16T15:20:40.106Z,14.10
2018-04-16T15:23:08.520Z,15.97
2018-04-16T15:25:36.919Z,15.27
2018-04-16T15:28:05.350Z,15.97
2018-04-16T15:30:33.770Z,14.57
2018-04-16T15:33:02.515Z,13.50
2018-04-16T15:35:31.199Z,17.00
2018-04-16T15:38:00.959Z,17.53
2018-04-16T15:40:29.441Z,19.90
2018-04-16T15:42:57.867Z,23.13
2018-04-16T15:45:26.322Z,23.27
2018-04-16T15:47:55.005Z,26.27
2018-04-16T15:50:23.428Z,32.80
2018-04-16T15:52:51.859Z,27.47
2018-04-16T15:55:21.241Z,29.57
2018-04-16T15:57:49.688Z,30.70
2018-04-16T16:00:18.101Z,29.13
2018-04-16T16:02:46.563Z,38.13
2018-04-16T16:05:21.951Z,32.77
2018-04-16T16:07:50.393Z,25.13
2018-04-16T16:10:19.157Z,30.13
2018-04-16T16:12:47.598Z,30.23
2018-04-16T16:15:16.035Z,31.90
2018-04-16T16:17:45.515Z,30.73
2018-04-16T16:20:14.006Z,28.80
2018-04-16T16:22:42.441Z,28.43
2018-04-16T16:25:10.849Z,34.23
2018-04-16T16:27:39.283Z,27.60
2018-04-16T16:30:07.824Z,28.07
2018-04-16T16:32:36.497Z,28.77
2018-04-16T16:35:04.925Z,28.50
2018-04-16T16:37:33.303Z,30.97
2018-04-16T16:40:01.865Z,28.23
2018-04-16T16:42:30.251Z,29.13
2018-04-16T16:44:58.646Z,30.70
2018-04-16T16:47:27.022Z,28.77
2018-04-16T16:49:55.401Z,24.13
2018-04-16T16:52:23.849Z,23.63
2018-04-16T16:54:52.614Z,23.03
2018-04-16T16:57:21.088Z,23.37
2018-04-16T16:59:49.499Z,23.30
2018-04-16T17:02:19.151Z,22.50
2018-04-16T17:04:48.211Z,18.57
2018-04-16T17:07:16.629Z,22.33
2018-04-16T17:09:45.062Z,21.17
2018-04-16T17:12:13.468Z,22.93
2018-04-16T17:14:41.876Z,18.20
2018-04-16T17:17:10.291Z,25.07
2018-04-16T17:19:38.742Z,21.00
2018-04-16T17:22:07.201Z,25.53
2018-04-16T17:24:35.625Z,38.50
2018-04-16T17:27:04.035Z,23.37
2018-04-16T17:29:32.456Z,30.03
2018-04-16T17:32:00.872Z,21.43
2018-04-16T17:34:29.291Z,23.47
2018-04-16T17:36:57.683Z,30.27
2018-04-16T17:39:26.203Z,24.40
2018-04-16T17:41:55.574Z,23.60
2018-04-16T17:44:25.237Z,22.23
2018-04-16T17:46:53.661Z,27.73
2018-04-16T17:49:22.067Z,22.40
2018-04-16T17:51:50.871Z,31.83
2018-04-16T17:54:23.788Z,26.93
2018-04-16T17:56:52.284Z,22.70
2018-04-16T17:59:20.713Z,25.90
2018-04-16T18:01:49.636Z,22.43
2018-04-16T18:04:18.144Z,25.70
2018-04-16T18:06:46.634Z,24.43
2018-04-16T18:09:15.119Z,22.40
2018-04-16T18:11:43.632Z,30.60
2018-04-16T18:14:12.064Z,22.00
2018-04-16T18:16:40.533Z,26.03
2018-04-16T18:19:08.968Z,23.60
2018-04-16T18:21:37.424Z,22.70
2018-04-16T18:24:05.894Z,26.07
2018-04-16T18:26:34.544Z,29.27
2018-04-16T18:29:02.967Z,26.63
2018-04-16T18:31:31.783Z,22.40
2018-04-16T18:34:00.515Z,28.97
2018-04-16T18:36:30.224Z,21.80
2018-04-16T18:38:58.934Z,19.47
2018-04-16T18:41:27.480Z,28.30
2018-04-16T18:43:56.691Z,20.43
2018-04-16T18:46:27.177Z,22.17
2018-04-16T18:48:55.676Z,25.47
2018-04-16T18:51:24.871Z,22.00
2018-04-16T18:53:53.563Z,23.37
2018-04-16T18:56:23.505Z,25.27
2018-04-16T18:58:52.125Z,28.63
2018-04-16T19:01:20.670Z,25.07
2018-04-16T19:03:49.202Z,24.43
2018-04-16T19:06:17.660Z,26.97
2018-04-16T19:08:46.114Z,23.87
2018-04-16T19:11:14.563Z,32.73
2018-04-16T19:13:43.067Z,30.90
2018-04-16T19:16:11.540Z,27.93
2018-04-16T19:18:40.240Z,28.47
2018-04-16T19:21:14.219Z,28.13
2018-04-16T19:23:43.399Z,23.80
2018-04-16T19:26:11.804Z,29.13
2018-04-16T19:28:40.333Z,36.43
2018-04-16T19:31:08.733Z,31.17
2018-04-16T19:33:42.694Z,30.13
2018-04-16T19:36:11.186Z,27.30
2018-04-16T19:38:39.773Z,30.93
2018-04-16T19:41:08.489Z,24.00
2018-04-16T19:43:37.088Z,27.13
2018-04-16T19:46:05.998Z,23.23
2018-04-16T19:48:42.765Z,26.63
2018-04-16T19:51:11.151Z,25.30
2018-04-16T19:53:39.663Z,28.10
2018-04-16T19:56:14.034Z,27.30
2018-04-16T19:58:42.479Z,28.30
2018-04-16T20:01:11.196Z,24.13
2018-04-16T20:03:45.262Z,29.17
2018-04-16T20:06:13.697Z,33.30
2018-04-16T20:08:42.149Z,32.60
2018-04-16T20:11:10.557Z,32.33
2018-04-16T20:13:39.835Z,25.00
2018-04-16T20:16:08.433Z,26.47
2018-04-16T20:18:36.835Z,31.10
2018-04-16T20:21:05.435Z,25.63
2018-04-16T20:23:33.826Z,28.27
2018-04-16T20:26:02.335Z,38.47
2018-04-16T20:28:30.753Z,28.30
2018-04-16T20:30:59.201Z,32.47
2018-04-16T20:33:27.609Z,38.70
2018-04-16T20:35:56.084Z,68.17
2018-04-16T20:38:24.661Z,35.03
2018-04-16T20:40:53.084Z,29.07
2018-04-16T20:43:21.549Z,27.77
2018-04-16T20:45:49.943Z,26.90
2018-04-16T20:48:18.366Z,24.10
2018-04-16T20:50:46.849Z,30.00
2018-04-16T20:53:15.275Z,23.70
2018-04-16T20:55:43.689Z,31.97
2018-04-16T20:58:12.095Z,26.53
2018-04-16T21:00:40.503Z,25.87
2018-04-16T21:03:08.943Z,30.30
2018-04-16T21:05:37.377Z,26.40
2018-04-16T21:08:06.137Z,23.80
2018-04-16T21:10:34.508Z,25.20
2018-04-16T21:13:02.885Z,25.87
2018-04-16T21:15:34.424Z,27.70
2018-04-16T21:18:02.834Z,24.67
2018-04-16T21:20:31.406Z,34.67
2018-04-16T21:22:59.828Z,29.30
2018-04-16T21:25:28.336Z,23.07
2018-04-16T21:27:56.719Z,28.07
2018-04-16T21:30:25.258Z,25.20
2018-04-16T21:32:53.689Z,26.60
2018-04-16T21:35:22.110Z,27.17
2018-04-16T21:37:50.525Z,28.37
2018-04-16T21:40:18.943Z,28.33
2018-04-16T21:42:47.369Z,29.43
2018-04-16T21:45:15.846Z,22.87
2018-04-16T21:47:44.248Z,25.87
2018-04-16T21:50:12.650Z,25.87
2018-04-16T21:52:41.079Z,26.27
2018-04-16T21:55:09.582Z,25.50
2018-04-16T21:57:38.668Z,25.07
2018-04-16T22:00:07.083Z,31.10
2018-04-16T22:02:35.472Z,28.97
2018-04-16T22:05:03.875Z,28.10
2018-04-16T22:07:32.286Z,26.20
2018-04-16T22:10:00.731Z,24.40
2018-04-16T22:12:29.110Z,19.10
2018-04-16T22:14:57.648Z,22.80
2018-04-16T22:17:26.068Z,28.20
2018-04-16T22:19:54.503Z,19.20
2018-04-16T22:22:22.961Z,29.50
2018-04-16T22:24:51.369Z,27.77
2018-04-16T22:27:19.883Z,25.57
2018-04-16T22:29:48.365Z,29.67
2018-04-16T22:32:16.774Z,25.50
2018-04-16T22:34:45.215Z,28.80
2018-04-16T22:37:13.623Z,25.00
2018-04-16T22:39:42.071Z,28.93
2018-04-16T22:42:10.476Z,22.73
2018-04-16T22:44:38.888Z,21.97
2018-04-16T22:47:07.304Z,20.63
2018-04-16T22:49:35.711Z,26.40
2018-04-16T22:52:04.139Z,26.73
2018-04-16T22:54:32.513Z,27.00
2018-04-16T22:57:00.962Z,33.83
2018-04-16T22:59:29.377Z,23.40
2018-04-16T23:01:57.875Z,24.37
2018-04-16T23:04:26.283Z,28.23
2018-04-16T23:06:54.690Z,27.90
2018-04-16T23:09:23.126Z,28.73
2018-04-16T23:11:51.511Z,22.90
2018-04-16T23:14:20.100Z,17.10
2018-04-16T23:16:48.487Z,20.07
2018-04-16T23:19:17.641Z,28.00
2018-04-16T23:21:46.070Z,24.03
2018-04-16T23:24:14.440Z,21.10
2018-04-16T23:26:42.880Z,30.43
2018-04-16T23:29:11.250Z,18.77
2018-04-16T23:31:39.637Z,23.53
2018-04-16T23:34:08.030Z,22.60
2018-04-16T23:36:36.954Z,23.53
2018-04-16T23:39:06.674Z,20.27
2018-04-16T23:41:35.311Z,21.07
2018-04-16T23:44:03.800Z,23.07
2018-04-16T23:46:32.171Z,22.07
2018-04-16T23:49:00.551Z,22.27
2018-04-16T23:51:28.986Z,22.50
2018-04-16T23:53:57.376Z,20.57
2018-04-16T23:56:25.747Z,19.70
2018-04-16T23:58:54.131Z,21.97
